International Virtual Aviation Organisation

Russian Federation and Kazakhstan MCD

 
UACK 240830Z 18007MPS 9999 DRSN OVC015 M04/M07 Q1034 R20/090060 NOSIG RMK QFE751/1002
QNH:(hPa/inHg/mmHg)1034 / 30.53 / 776
QFE:(hPa/inHg/mmHg)1001 / 29.56 / 751
Temperature-4
Dew Point-7
Visibility> 10000
Weather
Cloud CoverOVC (1500);
Transition Height10000 m./33700 ft.
Transition LevelFL350
SQUAWK